Time;durP1;ratioP1;P1;durP2;ratioP2;P2;SDS_P1;SDS_P2;PMS_P1;PMS_P2;Temp;Humidity;BMP_temperature;BMP_pressure;BME280_temperature;BME280_humidity;BME280_pressure;Samples;Min_cycle;Max_cycle;Signal;HPM_P1;HPM_P2
2023/05/10 00:01:28;;;;;;;0.52;0.52;;;;;;;;;;4950249;28;20039;-76
2023/05/10 00:03:54;;;;;;;0.98;0.65;;;;;;;;;;4952075;28;20063;-76
2023/05/10 00:06:20;;;;;;;0.20;0.20;;;;;;;;;;4950559;28;20035;-77
2023/05/10 00:08:46;;;;;;;0.40;0.40;;;;;;;;;;4952385;28;20027;-77
2023/05/10 00:11:12;;;;;;;0.40;0.40;;;;;;;;;;4950837;28;20027;-77
2023/05/10 00:13:38;;;;;;;0.70;0.70;;;;;;;;;;4951011;28;20538;-77
2023/05/10 00:16:05;;;;;;;0.63;0.60;;;;;;;;;;4950637;28;20027;-76
2023/05/10 00:18:31;;;;;;;0.65;0.65;;;;;;;;;;4951263;28;20047;-77
2023/05/10 00:20:56;;;;;;;1.92;0.70;;;;;;;;;;4951099;28;20524;-76
2023/05/10 00:23:22;;;;;;;0.40;0.40;;;;;;;;;;4952453;28;20106;-76
2023/05/10 00:25:49;;;;;;;6.53;1.02;;;;;;;;;;4950942;28;20031;-76
2023/05/10 00:28:15;;;;;;;0.63;0.60;;;;;;;;;;4955480;28;20105;-76
2023/05/10 00:30:41;;;;;;;0.73;0.63;;;;;;;;;;4955410;28;20395;-76
2023/05/10 00:33:07;;;;;;;0.82;0.80;;;;;;;;;;4953413;28;20027;-76
2023/05/10 00:35:33;;;;;;;0.65;0.65;;;;;;;;;;4953617;28;20122;-77
2023/05/10 00:37:59;;;;;;;3.28;0.98;;;;;;;;;;4955579;28;20576;-76
2023/05/10 00:40:25;;;;;;;0.60;0.57;;;;;;;;;;4955043;28;20091;-76
2023/05/10 00:42:52;;;;;;;1.23;0.50;;;;;;;;;;4955753;28;20416;-76
2023/05/10 00:45:18;;;;;;;1.05;0.65;;;;;;;;;;4955207;28;20463;-76
2023/05/10 00:47:44;;;;;;;0.73;0.73;;;;;;;;;;4953482;28;20027;-76
2023/05/10 00:50:10;;;;;;;0.65;0.65;;;;;;;;;;4954086;28;20143;-76
2023/05/10 00:52:36;;;;;;;0.50;0.50;;;;;;;;;;4955086;28;20031;-76
2023/05/10 00:55:03;;;;;;;0.55;0.50;;;;;;;;;;4953544;28;20027;-76
2023/05/10 00:57:29;;;;;;;2.83;0.77;;;;;;;;;;4954921;28;20135;-77
2023/05/10 00:59:55;;;;;;;0.77;0.77;;;;;;;;;;4955035;28;20035;-76
2023/05/10 01:02:21;;;;;;;0.50;0.50;;;;;;;;;;4952921;28;20408;-76
2023/05/10 01:04:47;;;;;;;0.80;0.80;;;;;;;;;;4952955;28;20037;-77
2023/05/10 01:07:13;;;;;;;0.50;0.50;;;;;;;;;;4952815;28;20035;-76
2023/05/10 01:09:39;;;;;;;1.65;0.85;;;;;;;;;;4952166;28;20027;-76
2023/05/10 01:12:07;;;;;;;0.68;0.68;;;;;;;;;;4953719;28;20031;-76
2023/05/10 01:14:34;;;;;;;0.88;0.68;;;;;;;;;;4952879;28;20030;-76
2023/05/10 01:17:00;;;;;;;0.80;0.80;;;;;;;;;;4952484;28;20027;-76
2023/05/10 01:19:27;;;;;;;0.68;0.68;;;;;;;;;;4953952;28;20027;-76
2023/05/10 01:22:03;;;;;;;2.03;0.63;;;;;;;;;;4952673;28;20131;-76
2023/05/10 01:24:40;;;;;;;0.68;0.68;;;;;;;;;;4952841;28;20082;-77
2023/05/10 01:27:09;;;;;;;0.95;0.50;;;;;;;;;;4951602;28;20023;-77
2023/05/10 01:29:54;;;;;;;0.60;0.60;;;;;;;;;;4952571;28;20112;-76
2023/05/10 01:32:20;;;;;;;0.60;0.60;;;;;;;;;;4953299;28;20030;-76
2023/05/10 01:35:22;;;;;;;0.80;0.80;;;;;;;;;;4951656;28;20051;-77
2023/05/10 01:37:53;;;;;;;0.47;0.47;;;;;;;;;;4931534;29;20032;-77
2023/05/10 01:40:58;;;;;;;0.50;0.50;;;;;;;;;;4961692;28;20039;-77
2023/05/10 01:43:27;;;;;;;0.50;0.50;;;;;;;;;;4932270;29;20070;-76
2023/05/10 01:45:53;;;;;;;0.40;0.40;;;;;;;;;;4931388;29;20120;-77
2023/05/10 01:48:20;;;;;;;3.78;1.02;;;;;;;;;;4941988;29;20082;-77
2023/05/10 01:50:47;;;;;;;0.50;0.50;;;;;;;;;;4951886;28;20034;-76
2023/05/10 01:53:15;;;;;;;1.33;0.82;;;;;;;;;;4953344;28;20019;-77
2023/05/10 01:55:49;;;;;;;1.10;0.60;;;;;;;;;;4951510;28;20027;-77
2023/05/10 01:58:17;;;;;;;0.60;0.60;;;;;;;;;;4952043;28;20389;-77
2023/05/10 02:00:45;;;;;;;0.77;0.65;;;;;;;;;;4952054;28;20357;-77
2023/05/10 02:03:11;;;;;;;0.60;0.60;;;;;;;;;;4951782;28;20114;-76
2023/05/10 02:05:38;;;;;;;0.70;0.50;;;;;;;;;;4952182;28;20103;-77
2023/05/10 02:08:06;;;;;;;1.00;1.00;;;;;;;;;;4953825;28;20286;-75
2023/05/10 02:10:33;;;;;;;1.85;0.60;;;;;;;;;;4952452;28;20034;-77
2023/05/10 02:12:59;;;;;;;0.60;0.60;;;;;;;;;;4952641;28;20108;-77
2023/05/10 02:15:26;;;;;;;0.60;0.60;;;;;;;;;;4952155;28;20026;-76
2023/05/10 02:17:55;;;;;;;0.75;0.75;;;;;;;;;;4952925;28;20031;-77
2023/05/10 02:20:21;;;;;;;0.75;0.75;;;;;;;;;;4952564;28;20019;-77
2023/05/10 02:22:49;;;;;;;0.70;0.70;;;;;;;;;;4951426;28;20035;-77
2023/05/10 02:25:16;;;;;;;0.77;0.77;;;;;;;;;;4951125;28;20023;-76
2023/05/10 02:27:43;;;;;;;0.88;0.88;;;;;;;;;;4951128;28;20114;-77
2023/05/10 02:30:10;;;;;;;0.73;0.65;;;;;;;;;;4951322;28;20019;-77
2023/05/10 02:32:37;;;;;;;0.80;0.80;;;;;;;;;;4952922;28;20030;-77
2023/05/10 02:35:03;;;;;;;0.52;0.52;;;;;;;;;;4953176;28;20388;-77
2023/05/10 02:37:30;;;;;;;0.95;0.70;;;;;;;;;;4952383;28;20070;-76
2023/05/10 02:39:57;;;;;;;1.65;0.68;;;;;;;;;;4953080;28;20070;-77
2023/05/10 02:42:25;;;;;;;0.77;0.77;;;;;;;;;;4952329;28;20059;-76
2023/05/10 02:44:53;;;;;;;0.70;0.70;;;;;;;;;;4952981;28;20019;-77
2023/05/10 02:47:19;;;;;;;0.50;0.50;;;;;;;;;;4951307;28;20035;-77
2023/05/10 02:49:46;;;;;;;0.80;0.80;;;;;;;;;;4950365;28;20400;-77
2023/05/10 02:52:14;;;;;;;0.60;0.60;;;;;;;;;;4951428;28;20034;-77
2023/05/10 02:54:44;;;;;;;0.73;0.40;;;;;;;;;;4951182;28;20041;-77
2023/05/10 02:57:11;;;;;;;2.15;0.50;;;;;;;;;;4952708;28;20054;-77
2023/05/10 02:59:37;;;;;;;0.32;0.32;;;;;;;;;;4952763;28;20509;-77
2023/05/10 03:02:03;;;;;;;0.45;0.45;;;;;;;;;;4952823;28;20440;-77
2023/05/10 03:04:29;;;;;;;0.40;0.40;;;;;;;;;;4950996;28;20036;-77
2023/05/10 03:06:55;;;;;;;0.90;0.70;;;;;;;;;;4952954;28;20035;-76
2023/05/10 03:09:21;;;;;;;0.52;0.52;;;;;;;;;;4952117;28;20027;-77
2023/05/10 03:12:02;;;;;;;2.72;1.00;;;;;;;;;;4953271;28;20027;-76
2023/05/10 03:14:47;;;;;;;0.30;0.30;;;;;;;;;;4952798;28;20028;-77
2023/05/10 03:17:32;;;;;;;2.25;0.50;;;;;;;;;;4952717;28;20031;-77
2023/05/10 03:20:05;;;;;;;0.55;0.55;;;;;;;;;;4952905;28;20034;-77
2023/05/10 03:22:38;;;;;;;0.30;0.30;;;;;;;;;;4951508;28;20047;-77
2023/05/10 03:25:08;;;;;;;1.05;0.40;;;;;;;;;;4951844;28;20031;-76
2023/05/10 03:27:35;;;;;;;0.45;0.40;;;;;;;;;;4952310;28;20065;-76
2023/05/10 03:30:02;;;;;;;0.77;0.77;;;;;;;;;;4952472;28;20032;-77
2023/05/10 03:32:31;;;;;;;0.30;0.30;;;;;;;;;;4952683;28;20054;-77
2023/05/10 03:34:57;;;;;;;0.90;0.40;;;;;;;;;;4951431;28;20061;-77
2023/05/10 03:37:23;;;;;;;0.40;0.30;;;;;;;;;;4951266;28;20059;-77
2023/05/10 03:39:49;;;;;;;1.52;0.40;;;;;;;;;;4952235;28;20098;-77
2023/05/10 03:42:17;;;;;;;0.65;0.65;;;;;;;;;;4951725;28;20150;-77
2023/05/10 03:44:43;;;;;;;0.40;0.40;;;;;;;;;;4951137;28;20492;-77
2023/05/10 03:47:09;;;;;;;1.65;0.43;;;;;;;;;;4951680;28;20094;-77
2023/05/10 03:49:35;;;;;;;0.77;0.38;;;;;;;;;;4950273;28;20046;-76
2023/05/10 03:52:01;;;;;;;0.60;0.60;;;;;;;;;;4949891;28;20031;-77
2023/05/10 03:54:27;;;;;;;0.40;0.40;;;;;;;;;;4949971;28;20400;-76
2023/05/10 03:56:53;;;;;;;0.50;0.50;;;;;;;;;;4949958;28;20117;-76
2023/05/10 03:59:19;;;;;;;0.60;0.60;;;;;;;;;;4950833;28;20569;-76
2023/05/10 04:01:45;;;;;;;2.08;0.63;;;;;;;;;;4953397;28;20038;-76
2023/05/10 04:04:12;;;;;;;0.70;0.70;;;;;;;;;;4953302;28;20369;-76
2023/05/10 04:06:38;;;;;;;0.70;0.70;;;;;;;;;;4953947;28;20023;-75
2023/05/10 04:09:04;;;;;;;0.70;0.70;;;;;;;;;;4952581;28;20110;-76
2023/05/10 04:11:30;;;;;;;0.77;0.50;;;;;;;;;;4952950;28;20171;-76
2023/05/10 04:13:56;;;;;;;0.82;0.82;;;;;;;;;;4953405;28;20113;-76
2023/05/10 04:16:22;;;;;;;1.58;1.02;;;;;;;;;;4952928;28;20031;-76
2023/05/10 04:18:48;;;;;;;1.00;1.00;;;;;;;;;;4955637;28;20023;-78
2023/05/10 04:21:14;;;;;;;0.75;0.63;;;;;;;;;;4954646;28;20054;-77
2023/05/10 04:23:41;;;;;;;0.77;0.77;;;;;;;;;;4955889;28;20023;-77
2023/05/10 04:26:07;;;;;;;0.85;0.85;;;;;;;;;;4955279;28;20110;-76
2023/05/10 04:28:33;;;;;;;0.50;0.50;;;;;;;;;;4954022;28;20031;-77
2023/05/10 04:31:06;;;;;;;1.25;0.60;;;;;;;;;;4956030;28;20028;-77
2023/05/10 04:33:33;;;;;;;0.40;0.40;;;;;;;;;;4954107;28;20063;-77
2023/05/10 04:35:59;;;;;;;0.40;0.38;;;;;;;;;;4953626;28;20051;-76
2023/05/10 04:38:25;;;;;;;0.60;0.60;;;;;;;;;;4955079;28;20059;-76
2023/05/10 04:40:51;;;;;;;2.63;0.50;;;;;;;;;;4953127;28;20038;-76
2023/05/10 04:43:17;;;;;;;0.57;0.38;;;;;;;;;;4953818;28;20117;-76
2023/05/10 04:45:43;;;;;;;0.43;0.40;;;;;;;;;;4954059;28;20118;-77
2023/05/10 04:48:09;;;;;;;0.47;0.47;;;;;;;;;;4953621;28;20476;-77
2023/05/10 04:50:35;;;;;;;1.10;0.55;;;;;;;;;;4953380;28;20034;-76
2023/05/10 04:53:01;;;;;;;0.35;0.35;;;;;;;;;;4953819;28;20090;-76
2023/05/10 04:55:27;;;;;;;2.42;0.77;;;;;;;;;;4952920;28;20049;-77
2023/05/10 04:57:56;;;;;;;0.40;0.40;;;;;;;;;;4954460;28;20048;-77
2023/05/10 05:00:22;;;;;;;0.25;0.25;;;;;;;;;;4954235;28;20125;-76
2023/05/10 05:02:48;;;;;;;0.40;0.40;;;;;;;;;;4953963;28;20031;-76
2023/05/10 05:05:14;;;;;;;0.70;0.70;;;;;;;;;;4954012;28;20023;-76
2023/05/10 05:07:40;;;;;;;1.20;0.40;;;;;;;;;;4952550;28;20507;-76
2023/05/10 05:10:07;;;;;;;1.15;0.60;;;;;;;;;;4953790;28;20102;-76
2023/05/10 05:12:33;;;;;;;2.50;0.90;;;;;;;;;;4951733;28;20507;-76
2023/05/10 05:14:59;;;;;;;2.63;0.65;;;;;;;;;;4953794;28;20480;-76
2023/05/10 05:17:26;;;;;;;1.15;1.10;;;;;;;;;;4954136;28;20106;-76
2023/05/10 05:19:52;;;;;;;0.55;0.55;;;;;;;;;;4954012;28;20023;-76
2023/05/10 05:22:19;;;;;;;3.00;0.90;;;;;;;;;;4952556;28;20511;-76
2023/05/10 05:24:45;;;;;;;2.67;1.63;;;;;;;;;;4953224;28;20424;-76
2023/05/10 05:27:11;;;;;;;1.20;1.10;;;;;;;;;;4952265;28;20031;-75
2023/05/10 05:29:37;;;;;;;1.13;1.02;;;;;;;;;;4952311;28;20015;-77
2023/05/10 05:32:03;;;;;;;3.53;1.10;;;;;;;;;;4953738;28;20027;-77
2023/05/10 05:34:29;;;;;;;5.40;2.33;;;;;;;;;;4952459;28;20115;-76
2023/05/10 05:36:55;;;;;;;1.73;1.63;;;;;;;;;;4952763;28;20329;-76
2023/05/10 05:39:22;;;;;;;1.40;1.30;;;;;;;;;;4953245;28;20031;-77
2023/05/10 05:41:48;;;;;;;1.27;1.17;;;;;;;;;;4952245;28;20090;-76
2023/05/10 05:44:14;;;;;;;1.45;0.93;;;;;;;;;;4961724;28;20279;-77
2023/05/10 05:46:40;;;;;;;6.45;1.88;;;;;;;;;;4957120;28;20035;-76
2023/05/10 05:49:06;;;;;;;6.00;1.13;;;;;;;;;;4953795;28;20100;-76
2023/05/10 05:51:32;;;;;;;5.97;2.25;;;;;;;;;;4953800;28;20110;-76
2023/05/10 05:53:58;;;;;;;1.25;1.15;;;;;;;;;;4943097;28;20015;-74
2023/05/10 05:56:24;;;;;;;0.95;0.95;;;;;;;;;;4949793;28;20050;-76
2023/05/10 05:58:51;;;;;;;2.78;1.23;;;;;;;;;;4947564;28;20047;-75
2023/05/10 06:01:17;;;;;;;1.40;1.00;;;;;;;;;;4946718;28;20035;-75
2023/05/10 06:03:43;;;;;;;1.08;1.08;;;;;;;;;;4948394;28;20023;-75
2023/05/10 06:06:09;;;;;;;1.55;1.10;;;;;;;;;;4947328;28;20294;-76
2023/05/10 06:08:35;;;;;;;1.20;1.10;;;;;;;;;;4946735;28;20487;-76
2023/05/10 06:11:01;;;;;;;1.00;0.88;;;;;;;;;;4949640;28;20110;-76
2023/05/10 06:13:32;;;;;;;3.78;1.23;;;;;;;;;;4950089;28;20023;-76
2023/05/10 06:16:01;;;;;;;4.53;0.80;;;;;;;;;;4951460;28;20027;-75
2023/05/10 06:18:27;;;;;;;2.22;0.80;;;;;;;;;;4949675;28;20383;-76
2023/05/10 06:20:53;;;;;;;5.60;1.38;;;;;;;;;;4949322;28;20109;-76
2023/05/10 06:23:19;;;;;;;1.30;1.20;;;;;;;;;;4948752;28;20396;-76
2023/05/10 06:25:45;;;;;;;7.25;1.15;;;;;;;;;;4949129;28;20015;-76
2023/05/10 06:28:11;;;;;;;3.70;1.15;;;;;;;;;;4949247;28;20027;-76
2023/05/10 06:30:37;;;;;;;0.77;0.70;;;;;;;;;;4948445;28;20463;-76
2023/05/10 06:33:03;;;;;;;0.85;0.85;;;;;;;;;;4947276;28;20027;-76
2023/05/10 06:35:29;;;;;;;3.20;1.13;;;;;;;;;;4948031;28;20034;-76
2023/05/10 06:37:55;;;;;;;2.10;1.50;;;;;;;;;;4948652;28;20074;-76
2023/05/10 06:40:21;;;;;;;3.25;1.05;;;;;;;;;;4946903;28;20023;-76
2023/05/10 06:42:48;;;;;;;4.22;1.70;;;;;;;;;;4947638;28;20050;-76
2023/05/10 06:45:14;;;;;;;1.63;1.52;;;;;;;;;;4948289;28;20019;-76
2023/05/10 06:47:41;;;;;;;0.50;0.50;;;;;;;;;;4949636;28;20035;-76
2023/05/10 06:50:08;;;;;;;1.17;1.02;;;;;;;;;;4929599;29;20048;-76
2023/05/10 06:52:34;;;;;;;1.20;0.98;;;;;;;;;;4928372;29;20054;-76
2023/05/10 06:55:00;;;;;;;2.97;1.25;;;;;;;;;;4929528;29;20020;-76
2023/05/10 06:57:26;;;;;;;1.27;1.13;;;;;;;;;;4928238;29;20052;-76
2023/05/10 06:59:52;;;;;;;2.53;0.70;;;;;;;;;;4929871;29;20024;-76
2023/05/10 07:02:18;;;;;;;0.85;0.70;;;;;;;;;;4930422;29;20035;-75
2023/05/10 07:04:44;;;;;;;3.45;0.90;;;;;;;;;;4928436;29;20042;-76
2023/05/10 07:07:10;;;;;;;0.60;0.60;;;;;;;;;;4929740;29;20071;-76
2023/05/10 07:09:36;;;;;;;1.65;0.70;;;;;;;;;;4929308;29;20051;-76
2023/05/10 07:12:02;;;;;;;0.95;0.68;;;;;;;;;;4932423;29;20039;-76
2023/05/10 07:14:28;;;;;;;1.33;1.23;;;;;;;;;;4930124;29;20036;-76
2023/05/10 07:16:55;;;;;;;0.68;0.68;;;;;;;;;;4930938;29;20036;-76
2023/05/10 07:19:21;;;;;;;3.40;1.05;;;;;;;;;;4929118;29;20397;-75
2023/05/10 07:21:47;;;;;;;2.08;0.73;;;;;;;;;;4929198;29;20098;-75
2023/05/10 07:24:13;;;;;;;3.85;1.42;;;;;;;;;;4928068;29;20023;-75
2023/05/10 07:26:39;;;;;;;4.13;1.00;;;;;;;;;;4928000;29;20027;-76
2023/05/10 07:29:05;;;;;;;1.27;0.90;;;;;;;;;;4929479;29;20400;-76
2023/05/10 07:31:32;;;;;;;4.35;1.20;;;;;;;;;;4928138;29;20047;-75
2023/05/10 07:33:58;;;;;;;2.03;1.38;;;;;;;;;;4929400;29;20024;-76
2023/05/10 07:36:24;;;;;;;1.38;0.52;;;;;;;;;;4929266;29;20152;-75
2023/05/10 07:38:50;;;;;;;1.30;0.75;;;;;;;;;;4928702;29;20051;-76
2023/05/10 07:41:16;;;;;;;3.97;1.08;;;;;;;;;;4929159;29;20040;-75
2023/05/10 07:43:42;;;;;;;3.30;0.80;;;;;;;;;;4928956;29;20028;-75
2023/05/10 07:46:09;;;;;;;8.25;2.05;;;;;;;;;;4928985;29;20027;-76
2023/05/10 07:48:35;;;;;;;1.63;0.80;;;;;;;;;;4936692;29;20078;-76
2023/05/10 07:51:01;;;;;;;1.42;0.75;;;;;;;;;;4947161;28;20028;-75
2023/05/10 07:53:27;;;;;;;3.22;0.80;;;;;;;;;;4948821;28;20046;-75
2023/05/10 07:56:00;;;;;;;1.48;0.75;;;;;;;;;;4948414;28;20413;-75
2023/05/10 07:58:26;;;;;;;0.70;0.70;;;;;;;;;;4948660;28;20028;-76
2023/05/10 08:00:52;;;;;;;1.70;0.95;;;;;;;;;;4946533;28;20035;-76
2023/05/10 08:03:18;;;;;;;5.00;0.65;;;;;;;;;;4946899;28;20066;-76
2023/05/10 08:05:44;;;;;;;1.23;0.40;;;;;;;;;;4948338;28;20393;-76
2023/05/10 08:08:10;;;;;;;0.60;0.60;;;;;;;;;;4949254;28;20034;-75
2023/05/10 08:10:36;;;;;;;0.52;0.50;;;;;;;;;;4947380;28;20031;-73
2023/05/10 08:13:02;;;;;;;0.90;0.40;;;;;;;;;;4950145;28;20080;-74
2023/05/10 08:15:28;;;;;;;2.10;0.70;;;;;;;;;;4949090;28;20035;-74
2023/05/10 08:17:54;;;;;;;5.65;1.10;;;;;;;;;;4948056;28;20225;-75
2023/05/10 08:20:20;;;;;;;0.50;0.40;;;;;;;;;;4948343;28;20030;-76
2023/05/10 08:22:46;;;;;;;0.60;0.60;;;;;;;;;;4951387;28;20041;-75
2023/05/10 08:25:12;;;;;;;14.13;1.75;;;;;;;;;;4950436;28;20098;-75
2023/05/10 08:27:38;;;;;;;0.47;0.47;;;;;;;;;;4949225;28;20126;-74
2023/05/10 08:30:04;;;;;;;1.27;0.52;;;;;;;;;;4949180;28;20027;-74
2023/05/10 08:32:31;;;;;;;2.88;0.85;;;;;;;;;;4950475;28;20357;-75
2023/05/10 08:34:57;;;;;;;0.50;0.50;;;;;;;;;;4949543;28;20380;-75
2023/05/10 08:37:26;;;;;;;1.63;0.57;;;;;;;;;;4950715;28;20023;-75
2023/05/10 08:39:52;;;;;;;2.95;1.30;;;;;;;;;;4950346;28;20043;-75
2023/05/10 08:42:22;;;;;;;0.98;0.65;;;;;;;;;;4945469;28;20756;-75
2023/05/10 08:44:49;;;;;;;1.63;0.75;;;;;;;;;;4958096;28;20489;-75
2023/05/10 08:47:16;;;;;;;2.78;0.70;;;;;;;;;;4936427;29;20027;-75
2023/05/10 08:49:44;;;;;;;4.68;0.57;;;;;;;;;;4949091;28;20023;-75
2023/05/10 08:52:11;;;;;;;2.08;0.60;;;;;;;;;;4951495;28;20082;-76
2023/05/10 08:54:38;;;;;;;0.95;0.70;;;;;;;;;;4952202;28;20019;-75
2023/05/10 08:57:04;;;;;;;0.40;0.40;;;;;;;;;;4950727;28;20519;-75
2023/05/10 08:59:30;;;;;;;3.40;0.73;;;;;;;;;;4950357;28;20019;-75
2023/05/10 09:01:58;;;;;;;5.18;0.60;;;;;;;;;;4950501;28;20094;-75
2023/05/10 09:04:24;;;;;;;2.67;1.15;;;;;;;;;;4949067;28;20369;-75
2023/05/10 09:06:51;;;;;;;0.85;0.55;;;;;;;;;;4950416;29;20039;-75
2023/05/10 09:09:17;;;;;;;0.40;0.40;;;;;;;;;;4950214;28;20388;-75
2023/05/10 09:11:44;;;;;;;5.20;0.95;;;;;;;;;;4950746;28;20031;-75
2023/05/10 09:14:12;;;;;;;0.98;0.52;;;;;;;;;;4950659;28;20019;-75
2023/05/10 09:16:38;;;;;;;0.22;0.22;;;;;;;;;;4950864;28;20047;-75
2023/05/10 09:19:04;;;;;;;0.70;0.25;;;;;;;;;;4950942;28;20027;-75
2023/05/10 09:21:30;;;;;;;0.50;0.43;;;;;;;;;;4950718;28;20035;-75
2023/05/10 09:23:57;;;;;;;1.67;0.60;;;;;;;;;;4950471;28;20027;-74
2023/05/10 09:26:23;;;;;;;2.20;0.52;;;;;;;;;;4950553;28;20411;-74
2023/05/10 09:28:56;;;;;;;3.63;0.90;;;;;;;;;;4950692;28;20031;-75
2023/05/10 09:31:24;;;;;;;1.33;0.60;;;;;;;;;;4950563;28;20506;-75
2023/05/10 09:33:51;;;;;;;0.50;0.50;;;;;;;;;;4950499;28;20606;-74
2023/05/10 09:36:17;;;;;;;0.32;0.32;;;;;;;;;;4940916;28;20100;-75
2023/05/10 09:38:51;;;;;;;0.77;0.50;;;;;;;;;;4931183;29;20131;-75
2023/05/10 09:41:21;;;;;;;2.05;0.60;;;;;;;;;;4931323;29;20047;-75
2023/05/10 09:43:48;;;;;;;2.88;1.02;;;;;;;;;;4931038;29;20095;-75
2023/05/10 09:46:15;;;;;;;1.35;0.50;;;;;;;;;;4931311;29;20260;-75
2023/05/10 09:48:42;;;;;;;2.28;0.63;;;;;;;;;;4931521;29;20024;-75
2023/05/10 09:51:08;;;;;;;0.75;0.55;;;;;;;;;;4931200;29;20384;-75
2023/05/10 09:53:34;;;;;;;4.38;0.50;;;;;;;;;;4930912;29;20484;-75
2023/05/10 09:56:00;;;;;;;5.15;1.30;;;;;;;;;;4931486;29;20051;-75
2023/05/10 09:58:26;;;;;;;1.27;0.75;;;;;;;;;;4930093;29;20522;-75
2023/05/10 10:00:53;;;;;;;3.10;0.60;;;;;;;;;;4930162;29;20123;-75
2023/05/10 10:03:24;;;;;;;1.80;0.73;;;;;;;;;;4929838;29;20572;-74
2023/05/10 10:05:51;;;;;;;2.67;0.50;;;;;;;;;;4929654;29;20544;-75
2023/05/10 10:08:18;;;;;;;1.40;0.55;;;;;;;;;;4935998;29;20102;-75
2023/05/10 10:10:44;;;;;;;3.80;0.73;;;;;;;;;;4934457;29;20024;-74
2023/05/10 10:13:11;;;;;;;1.17;0.43;;;;;;;;;;4929641;29;20114;-77
2023/05/10 10:15:37;;;;;;;1.40;1.10;;;;;;;;;;4930188;29;20027;-74
2023/05/10 10:18:03;;;;;;;0.63;0.63;;;;;;;;;;4933756;29;20039;-73
2023/05/10 10:20:30;;;;;;;1.08;0.40;;;;;;;;;;4932007;29;20023;-74
2023/05/10 10:22:56;;;;;;;2.95;1.10;;;;;;;;;;4928995;29;20788;-74
2023/05/10 10:25:22;;;;;;;2.08;0.55;;;;;;;;;;4930192;29;20106;-74
2023/05/10 10:27:54;;;;;;;1.95;0.45;;;;;;;;;;4931963;29;20335;-74
2023/05/10 10:30:29;;;;;;;0.85;0.40;;;;;;;;;;4930578;29;20126;-76
2023/05/10 10:33:15;;;;;;;0.65;0.65;;;;;;;;;;4931515;29;20038;-75
2023/05/10 10:35:41;;;;;;;2.20;0.60;;;;;;;;;;4925632;29;20097;-75
2023/05/10 10:38:09;;;;;;;0.90;0.52;;;;;;;;;;4947330;28;20046;-76
2023/05/10 10:40:35;;;;;;;8.60;1.33;;;;;;;;;;4948894;28;20015;-75
2023/05/10 10:43:20;;;;;;;7.57;1.33;;;;;;;;;;4948548;28;20535;-75
2023/05/10 10:46:06;;;;;;;2.25;0.57;;;;;;;;;;4947165;28;20055;-75
2023/05/10 10:48:32;;;;;;;1.40;0.73;;;;;;;;;;4948999;28;20045;-75
2023/05/10 10:50:58;;;;;;;3.85;1.10;;;;;;;;;;4949051;28;20028;-75
2023/05/10 10:53:27;;;;;;;0.95;0.52;;;;;;;;;;4947660;28;20181;-75
2023/05/10 10:56:02;;;;;;;1.40;0.70;;;;;;;;;;4946683;28;20265;-75
2023/05/10 10:58:32;;;;;;;2.05;0.45;;;;;;;;;;4953212;28;20491;-75
2023/05/10 11:00:57;;;;;;;;;;;;;;;;;;4935151;29;20062;-75
2023/05/10 11:03:25;;;;;;;0.95;0.70;;;;;;;;;;4933927;29;19914;-75
2023/05/10 11:05:59;;;;;;;0.73;0.52;;;;;;;;;;4928671;29;20507;-75
2023/05/10 11:08:29;;;;;;;1.05;0.60;;;;;;;;;;4930375;29;20091;-75
2023/05/10 11:11:06;;;;;;;4.22;0.73;;;;;;;;;;4929007;29;20090;-75
2023/05/10 11:13:32;;;;;;;4.28;0.60;;;;;;;;;;4926919;29;20032;-75
2023/05/10 11:15:59;;;;;;;2.17;0.63;;;;;;;;;;4929922;29;20082;-75
2023/05/10 11:18:25;;;;;;;2.90;1.05;;;;;;;;;;4928521;29;20019;-75
2023/05/10 11:20:52;;;;;;;1.10;0.40;;;;;;;;;;4928354;29;20459;-75
2023/05/10 11:23:19;;;;;;;1.23;0.80;;;;;;;;;;4929492;29;20078;-75
2023/05/10 11:25:46;;;;;;;1.42;0.60;;;;;;;;;;4927860;29;20508;-75
2023/05/10 11:28:12;;;;;;;2.60;0.77;;;;;;;;;;4937581;29;20031;-76
2023/05/10 11:30:43;;;;;;;1.17;1.08;;;;;;;;;;4927840;29;20444;-75
2023/05/10 11:33:10;;;;;;;1.85;0.75;;;;;;;;;;4926773;29;20063;-73
2023/05/10 11:35:39;;;;;;;0.50;0.50;;;;;;;;;;4931878;28;20030;-74
2023/05/10 11:38:09;;;;;;;1.38;0.40;;;;;;;;;;4947369;28;20178;-75
2023/05/10 11:40:36;;;;;;;4.55;0.50;;;;;;;;;;4948671;28;20366;-74
2023/05/10 11:43:02;;;;;;;8.88;1.13;;;;;;;;;;4951877;28;20043;-75
2023/05/10 11:45:29;;;;;;;1.33;0.35;;;;;;;;;;4947854;28;20046;-74
2023/05/10 11:47:56;;;;;;;1.85;0.47;;;;;;;;;;4946200;28;20624;-75
2023/05/10 11:50:22;;;;;;;1.08;0.68;;;;;;;;;;4946381;28;20145;-74
2023/05/10 11:52:52;;;;;;;5.25;1.15;;;;;;;;;;4947244;28;20468;-76
2023/05/10 11:55:18;;;;;;;2.90;0.65;;;;;;;;;;4946629;28;20037;-75
2023/05/10 11:57:45;;;;;;;1.80;1.13;;;;;;;;;;4945825;28;20054;-74
2023/05/10 12:00:12;;;;;;;0.95;0.60;;;;;;;;;;4947373;28;20031;-74
2023/05/10 12:02:38;;;;;;;0.75;0.73;;;;;;;;;;4947021;28;20118;-75
2023/05/10 12:05:05;;;;;;;1.90;1.02;;;;;;;;;;4946004;28;20030;-75
2023/05/10 12:07:31;;;;;;;0.47;0.40;;;;;;;;;;4947051;28;20539;-76
2023/05/10 12:10:09;;;;;;;3.20;0.70;;;;;;;;;;4946171;28;20031;-75
2023/05/10 12:12:39;;;;;;;1.98;0.30;;;;;;;;;;4948438;28;20049;-75
2023/05/10 12:15:06;;;;;;;0.28;0.28;;;;;;;;;;4947040;28;20089;-75
2023/05/10 12:17:32;;;;;;;1.00;0.30;;;;;;;;;;4948599;28;20031;-75
2023/05/10 12:20:17;;;;;;;1.67;0.38;;;;;;;;;;4948070;28;20440;-75
2023/05/10 12:22:53;;;;;;;1.67;0.28;;;;;;;;;;4951006;28;20032;-75
2023/05/10 12:25:19;;;;;;;1.00;0.90;;;;;;;;;;4951160;28;20051;-76
2023/05/10 12:27:49;;;;;;;1.85;0.30;;;;;;;;;;4956209;28;20074;-76
2023/05/10 12:30:20;;;;;;;0.88;0.28;;;;;;;;;;4952068;28;20420;-74
2023/05/10 12:32:46;;;;;;;0.28;0.28;;;;;;;;;;4951459;28;20031;-75
2023/05/10 12:35:12;;;;;;;1.05;0.28;;;;;;;;;;4948615;28;20480;-76
2023/05/10 12:37:41;;;;;;;0.20;0.20;;;;;;;;;;4931875;29;20090;-76
2023/05/10 12:40:08;;;;;;;2.08;0.50;;;;;;;;;;4931372;29;20174;-76
2023/05/10 12:42:35;;;;;;;0.20;0.20;;;;;;;;;;4931652;29;20079;-77
2023/05/10 12:45:02;;;;;;;1.13;0.40;;;;;;;;;;4933304;29;20078;-75
2023/05/10 12:47:28;;;;;;;0.55;0.20;;;;;;;;;;4930728;29;20048;-75
2023/05/10 12:49:54;;;;;;;1.10;0.20;;;;;;;;;;4933266;29;20020;-76
2023/05/10 12:52:20;;;;;;;0.82;0.43;;;;;;;;;;4930479;29;20127;-76
2023/05/10 12:54:46;;;;;;;0.63;0.20;;;;;;;;;;4929797;29;20576;-76
2023/05/10 12:57:13;;;;;;;0.20;0.20;;;;;;;;;;4931012;29;20048;-76
2023/05/10 12:59:39;;;;;;;5.32;0.30;;;;;;;;;;4933472;29;20027;-76
2023/05/10 13:02:06;;;;;;;0.50;0.20;;;;;;;;;;4932632;29;20039;-75
2023/05/10 13:04:32;;;;;;;3.00;0.75;;;;;;;;;;4933684;29;20119;-76
2023/05/10 13:06:58;;;;;;;0.20;0.20;;;;;;;;;;4934162;29;20062;-75
2023/05/10 13:09:30;;;;;;;2.53;0.20;;;;;;;;;;4934766;29;20031;-75
2023/05/10 13:11:56;;;;;;;2.53;0.50;;;;;;;;;;4931752;29;20042;-75
2023/05/10 13:14:22;;;;;;;2.97;0.75;;;;;;;;;;4934506;29;20023;-75
2023/05/10 13:16:48;;;;;;;0.85;0.57;;;;;;;;;;4930652;29;20032;-75
2023/05/10 13:19:15;;;;;;;1.42;0.30;;;;;;;;;;4930765;29;20039;-75
2023/05/10 13:21:41;;;;;;;3.70;0.38;;;;;;;;;;4930454;29;20159;-76
2023/05/10 13:24:07;;;;;;;0.57;0.30;;;;;;;;;;4928288;29;20134;-75
2023/05/10 13:26:33;;;;;;;0.30;0.30;;;;;;;;;;4930683;29;20039;-76
2023/05/10 13:28:59;;;;;;;0.43;0.30;;;;;;;;;;4933915;29;20230;-76
2023/05/10 13:31:25;;;;;;;0.38;0.20;;;;;;;;;;4928981;29;20363;-75
2023/05/10 13:33:51;;;;;;;0.25;0.20;;;;;;;;;;4928372;29;20019;-75
2023/05/10 13:36:17;;;;;;;0.10;0.10;;;;;;;;;;4936638;29;20038;-75
2023/05/10 13:38:43;;;;;;;1.13;0.28;;;;;;;;;;4950214;28;20227;-75
2023/05/10 13:41:09;;;;;;;0.13;0.13;;;;;;;;;;4948126;28;20090;-76
2023/05/10 13:43:35;;;;;;;0.50;0.32;;;;;;;;;;4942915;28;20085;-75
2023/05/10 13:46:02;;;;;;;2.75;0.20;;;;;;;;;;4940044;28;20031;-75
2023/05/10 13:48:28;;;;;;;0.30;0.30;;;;;;;;;;4929661;29;20020;-76
2023/05/10 13:50:54;;;;;;;0.10;0.10;;;;;;;;;;4940097;28;20023;-75
2023/05/10 13:53:20;;;;;;;0.63;0.30;;;;;;;;;;4950577;28;20383;-75
2023/05/10 13:55:47;;;;;;;0.20;0.20;;;;;;;;;;4944465;28;20035;-75
2023/05/10 13:58:13;;;;;;;0.52;0.35;;;;;;;;;;4949290;28;20055;-75
2023/05/10 14:00:40;;;;;;;0.30;0.30;;;;;;;;;;4948534;28;20232;-77
2023/05/10 14:03:06;;;;;;;0.43;0.28;;;;;;;;;;4948589;28;20067;-76
2023/05/10 14:05:32;;;;;;;0.75;0.22;;;;;;;;;;4947350;28;20067;-76
2023/05/10 14:07:58;;;;;;;1.13;0.50;;;;;;;;;;4948670;28;20039;-76
2023/05/10 14:10:25;;;;;;;1.08;0.50;;;;;;;;;;4949914;28;20074;-75
2023/05/10 14:12:51;;;;;;;0.17;0.17;;;;;;;;;;4950377;28;20393;-75
2023/05/10 14:15:17;;;;;;;0.85;0.30;;;;;;;;;;4952073;28;20071;-75
2023/05/10 14:17:43;;;;;;;0.50;0.20;;;;;;;;;;4950430;28;20019;-77
2023/05/10 14:20:10;;;;;;;0.55;0.40;;;;;;;;;;4953306;28;20692;-77
2023/05/10 14:22:36;;;;;;;0.50;0.30;;;;;;;;;;4952729;28;20046;-78
2023/05/10 14:25:02;;;;;;;0.10;0.10;;;;;;;;;;4942098;29;20024;-75
2023/05/10 14:27:28;;;;;;;1.65;0.20;;;;;;;;;;4935299;28;20037;-76
2023/05/10 14:29:54;;;;;;;0.20;0.20;;;;;;;;;;4938105;28;20110;-76
2023/05/10 14:32:20;;;;;;;0.15;0.15;;;;;;;;;;4942692;29;20159;-76
2023/05/10 14:34:46;;;;;;;0.20;0.20;;;;;;;;;;4941986;28;20180;-75
2023/05/10 14:37:14;;;;;;;0.10;0.10;;;;;;;;;;4938731;29;20101;-76
2023/05/10 14:39:40;;;;;;;0.38;0.30;;;;;;;;;;4927772;29;20539;-76
2023/05/10 14:42:06;;;;;;;0.73;0.20;;;;;;;;;;4927543;29;20039;-74
2023/05/10 14:44:32;;;;;;;0.20;0.20;;;;;;;;;;4926670;29;20031;-75